Time;durP1;ratioP1;P1;durP2;ratioP2;P2;SDS_P1;SDS_P2;PMS_P1;PMS_P2;Temp;Humidity;BMP_temperature;BMP_pressure;BME280_temperature;BME280_humidity;BME280_pressure;Samples;Min_cycle;Max_cycle;Signal;HPM_P1;HPM_P2
2022/11/13 00:00:17;;;;;;;18.20;13.23;;;3.60;99.90;;;;;;5022858;28;20249;-78
2022/11/13 00:03:03;;;;;;;19.87;13.80;;;3.60;99.90;;;;;;5023773;28;20258;-79
2022/11/13 00:05:48;;;;;;;18.07;13.40;;;3.50;99.90;;;;;;5017434;28;20225;-79
2022/11/13 00:08:34;;;;;;;20.50;13.60;;;3.60;99.90;;;;;;5024684;28;20228;-79
2022/11/13 00:11:19;;;;;;;17.87;13.30;;;3.60;99.90;;;;;;5021968;28;20853;-79
2022/11/13 00:14:06;;;;;;;18.50;13.60;;;3.60;99.90;;;;;;5013476;28;20228;-79
2022/11/13 00:16:52;;;;;;;19.63;13.97;;;3.60;99.90;;;;;;5026781;28;20895;-79
2022/11/13 00:19:37;;;;;;;19.67;13.60;;;3.60;99.90;;;;;;5015191;28;20876;-79
2022/11/13 00:22:22;;;;;;;18.63;13.33;;;3.60;99.90;;;;;;5020976;28;20269;-79
2022/11/13 00:25:08;;;;;;;18.57;13.87;;;3.50;99.90;;;;;;5023148;28;20351;-78
2022/11/13 00:27:54;;;;;;;21.73;14.70;;;3.50;99.90;;;;;;5025962;28;20225;-78
2022/11/13 00:30:41;;;;;;;20.80;14.07;;;3.50;99.90;;;;;;5021498;28;20235;-78
2022/11/13 00:33:26;;;;;;;21.83;14.53;;;3.60;99.90;;;;;;5021968;28;20607;-78
2022/11/13 00:36:16;;;;;;;20.93;14.60;;;3.60;99.90;;;;;;5019605;28;20761;-79
2022/11/13 00:39:01;;;;;;;22.77;14.40;;;3.60;99.90;;;;;;5023161;28;20601;-78
2022/11/13 00:41:46;;;;;;;19.23;15.00;;;3.60;99.90;;;;;;5017907;28;20294;-78
2022/11/13 00:44:31;;;;;;;28.40;15.73;;;3.70;99.90;;;;;;5015914;28;20257;-78
2022/11/13 00:47:18;;;;;;;23.60;15.50;;;3.70;99.90;;;;;;5019994;28;20294;-78
2022/11/13 00:50:04;;;;;;;21.47;14.50;;;3.70;99.90;;;;;;5015688;28;20716;-78
2022/11/13 00:52:49;;;;;;;21.77;14.37;;;3.80;99.90;;;;;;5017898;28;20229;-76
2022/11/13 00:55:34;;;;;;;23.83;15.47;;;3.80;99.90;;;;;;5013270;28;20227;-76
2022/11/13 00:58:20;;;;;;;19.70;14.17;;;3.80;99.90;;;;;;5017686;28;20249;-77
2022/11/13 01:01:07;;;;;;;19.10;14.67;;;3.80;99.90;;;;;;5008808;28;20320;-76
2022/11/13 01:03:54;;;;;;;24.40;15.67;;;3.80;99.90;;;;;;5013091;28;21006;-76
2022/11/13 01:06:39;;;;;;;21.60;15.50;;;3.80;99.90;;;;;;5013534;28;20459;-77
2022/11/13 01:09:24;;;;;;;22.60;15.43;;;3.80;99.90;;;;;;5016128;28;20231;-77
2022/11/13 01:12:10;;;;;;;19.27;14.23;;;3.90;99.90;;;;;;5017977;28;20264;-77
2022/11/13 01:14:55;;;;;;;22.67;15.23;;;3.90;99.90;;;;;;5015160;28;20303;-77
2022/11/13 01:17:41;;;;;;;23.63;16.10;;;3.90;99.90;;;;;;5011201;28;22059;-77
2022/11/13 01:20:27;;;;;;;22.43;14.30;;;3.90;99.90;;;;;;5014426;28;20303;-76
2022/11/13 01:23:13;;;;;;;23.53;14.97;;;3.90;99.90;;;;;;5015874;28;20224;-77
2022/11/13 01:26:05;;;;;;;22.87;15.90;;;3.90;99.90;;;;;;5018763;28;20807;-77
2022/11/13 01:28:50;;;;;;;20.10;14.63;;;3.90;99.90;;;;;;5019132;28;20933;-77
2022/11/13 01:31:36;;;;;;;22.43;15.43;;;3.90;99.90;;;;;;5013563;28;20645;-77
2022/11/13 01:34:21;;;;;;;21.70;15.33;;;3.90;99.90;;;;;;5007711;28;20237;-77
2022/11/13 01:37:07;;;;;;;22.03;15.10;;;3.90;99.90;;;;;;5012869;28;20224;-77
2022/11/13 01:39:53;;;;;;;21.47;15.63;;;3.90;99.90;;;;;;5006419;28;20236;-77
2022/11/13 01:42:38;;;;;;;20.10;14.67;;;3.90;99.90;;;;;;5016164;28;20290;-77
2022/11/13 01:46:01;;;;;;;27.27;15.63;;;3.90;99.90;;;;;;5011026;28;20234;-77
2022/11/13 01:48:51;;;;;;;20.33;14.47;;;4.00;99.90;;;;;;5016812;28;21027;-77
2022/11/13 01:51:41;;;;;;;21.77;15.83;;;3.90;99.90;;;;;;5009790;28;20609;-77
2022/11/13 01:54:31;;;;;;;23.50;14.77;;;3.90;99.90;;;;;;5016182;28;20279;-77
2022/11/13 01:57:17;;;;;;;23.30;14.97;;;3.90;99.90;;;;;;5011157;28;20933;-77
2022/11/13 02:00:09;;;;;;;19.90;14.50;;;3.90;99.90;;;;;;5011003;28;20586;-77
2022/11/13 02:02:54;;;;;;;21.10;15.07;;;3.90;99.90;;;;;;5008810;28;21389;-77
2022/11/13 02:05:39;;;;;;;21.97;14.53;;;3.90;99.90;;;;;;5011698;28;20219;-77
2022/11/13 02:08:25;;;;;;;21.33;15.20;;;3.90;99.90;;;;;;5017826;28;20253;-77
2022/11/13 02:11:12;;;;;;;22.47;15.43;;;3.90;99.90;;;;;;5018465;28;20266;-77
2022/11/13 02:13:58;;;;;;;22.87;15.73;;;3.90;99.90;;;;;;5018423;28;20228;-78
2022/11/13 02:16:47;;;;;;;24.07;16.10;;;3.90;99.90;;;;;;5016677;28;20299;-77
2022/11/13 02:19:35;;;;;;;23.73;16.67;;;3.90;99.90;;;;;;5019458;28;20361;-77
2022/11/13 02:22:35;;;;;;;24.77;16.53;;;3.90;99.90;;;;;;5015828;28;20615;-77
2022/11/13 02:25:22;;;;;;;24.90;16.53;;;3.90;99.90;;;;;;5014342;28;20228;-77
2022/11/13 02:28:07;;;;;;;25.47;16.13;;;4.00;99.90;;;;;;5019301;28;20221;-78
2022/11/13 02:30:52;;;;;;;24.17;17.07;;;4.00;99.90;;;;;;5019877;28;20237;-77
2022/11/13 02:33:38;;;;;;;21.30;14.77;;;4.00;99.90;;;;;;5018832;28;20252;-77
2022/11/13 02:36:25;;;;;;;22.10;16.27;;;4.00;99.90;;;;;;5018921;28;20238;-78
2022/11/13 02:39:13;;;;;;;24.87;16.17;;;4.00;99.90;;;;;;5019538;28;20649;-77
2022/11/13 02:42:00;;;;;;;27.53;16.67;;;4.00;99.90;;;;;;5016411;28;20236;-77
2022/11/13 02:44:46;;;;;;;25.13;17.50;;;4.00;99.90;;;;;;5018470;28;20230;-77
2022/11/13 02:47:32;;;;;;;23.83;16.70;;;4.10;99.90;;;;;;5017702;28;20352;-76
2022/11/13 02:50:17;;;;;;;26.90;16.13;;;4.00;99.90;;;;;;5014870;28;20301;-77
2022/11/13 02:53:04;;;;;;;23.23;16.47;;;4.10;99.90;;;;;;5022377;28;20718;-77
2022/11/13 02:55:49;;;;;;;24.07;16.23;;;4.10;99.90;;;;;;5018594;28;20227;-77
2022/11/13 02:58:36;;;;;;;31.93;17.07;;;4.00;99.90;;;;;;5017935;28;20229;-77
2022/11/13 03:01:21;;;;;;;25.60;17.40;;;4.10;99.90;;;;;;5015192;28;20328;-77
2022/11/13 03:04:06;;;;;;;26.80;16.83;;;4.00;99.90;;;;;;5016792;28;20309;-77
2022/11/13 03:06:51;;;;;;;25.10;17.30;;;4.10;99.90;;;;;;5014488;28;20392;-77
2022/11/13 03:09:37;;;;;;;25.67;17.17;;;4.10;99.90;;;;;;5015384;28;20340;-77
2022/11/13 03:12:22;;;;;;;28.90;17.87;;;4.10;99.90;;;;;;5015592;28;20220;-77
2022/11/13 03:15:13;;;;;;;23.63;16.23;;;4.10;99.90;;;;;;5016019;28;20228;-77
2022/11/13 03:18:03;;;;;;;26.90;16.60;;;4.10;99.90;;;;;;5019422;28;20363;-77
2022/11/13 03:20:52;;;;;;;24.43;16.60;;;4.10;99.90;;;;;;5015751;28;20357;-77
2022/11/13 03:23:38;;;;;;;30.00;16.77;;;4.10;99.90;;;;;;5018586;28;20225;-77
2022/11/13 03:26:23;;;;;;;29.20;17.97;;;4.00;99.90;;;;;;5018330;28;20286;-77
2022/11/13 03:29:09;;;;;;;26.13;16.03;;;4.10;99.90;;;;;;5021262;28;20232;-77
2022/11/13 03:31:56;;;;;;;23.87;16.77;;;4.10;99.90;;;;;;5014709;28;20317;-78
2022/11/13 03:34:41;;;;;;;24.83;16.77;;;4.10;99.90;;;;;;5014477;28;20233;-77
2022/11/13 03:37:26;;;;;;;21.73;16.37;;;4.00;99.90;;;;;;5014392;28;20233;-77
2022/11/13 03:40:12;;;;;;;25.73;17.60;;;4.00;99.90;;;;;;5017129;28;20266;-77
2022/11/13 03:42:57;;;;;;;34.43;17.27;;;4.00;99.90;;;;;;5017068;28;20252;-77
2022/11/13 03:45:45;;;;;;;27.13;16.97;;;4.00;99.90;;;;;;5022271;28;20692;-78
2022/11/13 03:48:32;;;;;;;30.13;16.80;;;3.90;99.90;;;;;;5023063;28;20309;-78
2022/11/13 03:51:17;;;;;;;22.70;16.37;;;3.90;99.90;;;;;;5014996;28;20278;-77
2022/11/13 03:54:02;;;;;;;26.80;17.63;;;3.90;99.90;;;;;;5015872;28;20225;-77
2022/11/13 03:56:51;;;;;;;25.00;16.40;;;3.90;99.90;;;;;;5021839;28;20230;-77
2022/11/13 03:59:36;;;;;;;24.73;16.70;;;3.90;99.90;;;;;;5015696;28;20224;-77
2022/11/13 04:02:21;;;;;;;29.30;17.63;;;3.90;99.90;;;;;;5017845;28;20774;-77
2022/11/13 04:05:09;;;;;;;27.13;17.20;;;3.90;99.90;;;;;;5017504;28;20227;-76
2022/11/13 04:07:55;;;;;;;23.73;17.20;;;3.90;99.90;;;;;;5015609;28;20225;-76
2022/11/13 04:10:41;;;;;;;27.23;18.30;;;3.90;99.90;;;;;;5012611;28;20249;-76
2022/11/13 04:13:26;;;;;;;28.07;17.57;;;4.00;99.90;;;;;;5014766;28;20240;-76
2022/11/13 04:16:14;;;;;;;24.90;17.03;;;3.90;99.90;;;;;;5015364;28;20241;-76
2022/11/13 04:19:00;;;;;;;28.83;18.03;;;3.90;99.90;;;;;;5019732;28;20313;-75
2022/11/13 04:21:47;;;;;;;28.17;17.13;;;4.00;99.90;;;;;;5017722;28;20228;-75
2022/11/13 04:24:32;;;;;;;27.33;18.07;;;4.00;99.90;;;;;;5010620;28;20808;-75
2022/11/13 04:27:17;;;;;;;26.00;16.53;;;4.00;99.90;;;;;;5014788;28;20220;-76
2022/11/13 04:30:03;;;;;;;29.87;17.60;;;4.00;99.90;;;;;;5014335;28;20238;-76
2022/11/13 04:32:49;;;;;;;26.27;16.57;;;4.00;99.90;;;;;;5014457;28;20234;-76
2022/11/13 04:35:34;;;;;;;25.90;17.03;;;3.90;99.90;;;;;;5017870;28;20232;-76
2022/11/13 04:38:21;;;;;;;29.80;18.13;;;3.90;99.90;;;;;;5017846;28;20355;-76
2022/11/13 04:44:10;;;;;;;29.83;18.43;;;3.90;99.90;;;;;;5012093;28;20263;-76
2022/11/13 04:46:55;;;;;;;25.77;16.33;;;3.90;99.90;;;;;;5012786;28;20717;-76
2022/11/13 04:49:40;;;;;;;26.07;16.97;;;3.80;99.90;;;;;;5016191;28;20273;-76
2022/11/13 04:52:27;;;;;;;28.80;17.50;;;3.80;99.90;;;;;;5013738;28;20271;-76
2022/11/13 04:55:13;;;;;;;24.60;15.47;;;3.80;99.90;;;;;;5015036;28;20289;-76
2022/11/13 04:57:59;;;;;;;26.57;17.10;;;3.80;99.90;;;;;;5014979;28;20225;-76
2022/11/13 05:00:49;;;;;;;23.97;16.53;;;3.80;99.90;;;;;;5011757;28;20241;-75
2022/11/13 05:03:35;;;;;;;27.37;17.27;;;3.70;99.90;;;;;;5002504;28;20222;-75
2022/11/13 05:06:20;;;;;;;24.97;16.80;;;3.70;99.90;;;;;;5012956;28;20224;-76
2022/11/13 05:09:05;;;;;;;29.57;18.43;;;3.70;99.90;;;;;;5016791;28;20306;-76
2022/11/13 05:11:52;;;;;;;34.40;18.03;;;3.70;99.90;;;;;;5016649;28;20359;-76
2022/11/13 05:14:38;;;;;;;43.27;19.73;;;3.60;99.90;;;;;;5018489;28;20666;-76
2022/11/13 05:17:24;;;;;;;55.40;19.83;;;3.60;99.90;;;;;;5010016;28;20240;-75
2022/11/13 05:20:11;;;;;;;28.33;17.70;;;3.60;99.90;;;;;;5015842;28;20319;-75
2022/11/13 05:22:56;;;;;;;83.23;20.63;;;3.60;99.90;;;;;;5016485;28;20299;-75
2022/11/13 05:25:41;;;;;;;27.43;18.17;;;3.60;99.90;;;;;;5014805;28;20347;-75
2022/11/13 05:28:28;;;;;;;36.33;19.40;;;3.60;99.90;;;;;;5013621;28;21223;-76
2022/11/13 05:31:15;;;;;;;26.37;18.10;;;3.50;99.90;;;;;;5013111;28;20363;-76
2022/11/13 05:34:02;;;;;;;28.20;18.67;;;3.50;99.90;;;;;;5016044;28;20392;-75
2022/11/13 05:36:48;;;;;;;27.90;17.67;;;3.50;99.90;;;;;;5008824;28;20230;-75
2022/11/13 05:39:33;;;;;;;24.83;16.47;;;3.50;99.90;;;;;;5015273;28;20228;-77
2022/11/13 05:42:18;;;;;;;38.40;18.53;;;3.40;99.90;;;;;;5018555;28;20223;-77
2022/11/13 05:45:06;;;;;;;24.27;16.47;;;3.40;99.90;;;;;;5017490;28;20216;-75
2022/11/13 05:47:51;;;;;;;28.00;17.17;;;3.40;99.90;;;;;;5021311;28;20351;-76
2022/11/13 05:50:36;;;;;;;26.23;17.50;;;3.30;99.90;;;;;;5020566;28;20232;-77
2022/11/13 05:53:21;;;;;;;32.43;18.20;;;3.30;99.90;;;;;;5015107;28;20745;-77
2022/11/13 05:56:11;;;;;;;32.70;20.23;;;3.30;99.90;;;;;;5014928;28;20270;-78
2022/11/13 05:58:57;;;;;;;51.30;21.33;;;3.30;99.90;;;;;;5021426;28;20224;-76
2022/11/13 06:01:44;;;;;;;25.83;17.20;;;3.30;99.90;;;;;;5017443;28;20251;-77
2022/11/13 06:04:29;;;;;;;30.60;19.53;;;3.30;99.90;;;;;;5019185;28;20235;-78
2022/11/13 06:07:15;;;;;;;36.67;20.03;;;3.20;99.90;;;;;;5019448;28;20704;-77
2022/11/13 06:10:00;;;;;;;27.63;19.20;;;3.20;99.90;;;;;;5022655;28;20237;-76
2022/11/13 06:12:45;;;;;;;60.03;21.23;;;3.20;99.90;;;;;;5014159;28;20371;-77
2022/11/13 06:15:31;;;;;;;61.03;21.70;;;3.20;99.90;;;;;;5020587;28;20831;-77
2022/11/13 06:18:21;;;;;;;30.67;17.33;;;3.20;99.90;;;;;;5019459;28;20286;-77
2022/11/13 06:21:08;;;;;;;31.80;19.23;;;3.20;99.90;;;;;;5018744;28;20228;-76
2022/11/13 06:23:54;;;;;;;44.40;19.33;;;3.20;99.90;;;;;;5012984;28;20227;-79
2022/11/13 06:26:40;;;;;;;56.90;21.33;;;3.20;99.90;;;;;;5014636;28;20280;-77
2022/11/13 06:29:25;;;;;;;43.43;20.20;;;3.20;99.90;;;;;;5015325;28;20307;-77
2022/11/13 06:32:10;;;;;;;37.17;20.07;;;3.20;99.90;;;;;;5016794;28;20296;-76
2022/11/13 06:34:57;;;;;;;36.83;20.50;;;3.20;99.90;;;;;;5016379;28;20226;-76
2022/11/13 06:37:42;;;;;;;67.50;21.93;;;3.20;99.90;;;;;;5015000;28;20329;-76
2022/11/13 06:40:27;;;;;;;38.23;20.23;;;3.20;99.90;;;;;;5016574;28;20237;-76
2022/11/13 06:43:12;;;;;;;33.10;20.80;;;3.20;99.90;;;;;;5012895;28;20224;-75
2022/11/13 06:45:58;;;;;;;35.57;19.73;;;3.20;99.90;;;;;;5011401;28;20599;-76
2022/11/13 06:48:44;;;;;;;32.57;18.80;;;3.20;99.90;;;;;;5013257;28;20227;-76
2022/11/13 06:51:31;;;;;;;53.67;20.27;;;3.20;99.90;;;;;;5014839;28;20237;-76
2022/11/13 06:54:17;;;;;;;34.27;19.63;;;3.30;99.90;;;;;;5014405;28;20232;-76
2022/11/13 06:57:02;;;;;;;52.17;20.17;;;3.30;99.90;;;;;;5014759;28;20575;-76
2022/11/13 06:59:48;;;;;;;60.20;21.30;;;3.30;99.90;;;;;;5019196;28;20360;-76
2022/11/13 07:02:33;;;;;;;56.63;21.30;;;3.30;99.90;;;;;;5010392;28;20244;-76
2022/11/13 07:05:18;;;;;;;37.50;20.07;;;3.30;99.90;;;;;;5018140;28;20220;-76
2022/11/13 07:08:05;;;;;;;34.50;20.00;;;3.40;99.90;;;;;;5016603;28;20212;-76
2022/11/13 07:10:54;;;;;;;113.17;24.90;;;3.40;99.90;;;;;;5015355;28;20302;-76
2022/11/13 07:13:40;;;;;;;38.53;20.47;;;3.50;99.90;;;;;;5014921;28;20330;-76
2022/11/13 07:16:25;;;;;;;32.70;20.37;;;3.60;99.90;;;;;;5012371;28;20259;-76
2022/11/13 07:19:11;;;;;;;46.47;20.23;;;3.60;99.90;;;;;;5007780;28;20235;-77
2022/11/13 07:21:56;;;;;;;45.13;20.57;;;3.70;99.90;;;;;;5022153;28;20225;-76
2022/11/13 07:24:43;;;;;;;34.60;19.40;;;3.80;99.90;;;;;;5023482;28;20277;-78
2022/11/13 07:27:28;;;;;;;44.40;20.03;;;3.90;99.90;;;;;;5019037;28;20304;-77
2022/11/13 07:30:14;;;;;;;36.07;18.93;;;4.00;99.90;;;;;;5020783;28;20308;-79
2022/11/13 07:33:02;;;;;;;44.67;20.07;;;4.10;99.90;;;;;;5017699;28;20241;-76
2022/11/13 07:35:47;;;;;;;33.60;19.03;;;4.20;99.90;;;;;;5023539;28;20235;-77
2022/11/13 07:38:32;;;;;;;37.87;19.37;;;4.30;99.90;;;;;;5025237;28;20372;-77
2022/11/13 07:41:22;;;;;;;75.83;21.10;;;4.40;99.90;;;;;;5018866;28;20237;-76
2022/11/13 07:44:07;;;;;;;56.53;19.50;;;4.50;99.90;;;;;;5014101;28;20732;-76
2022/11/13 07:46:53;;;;;;;36.60;19.13;;;4.60;99.90;;;;;;5019755;28;20295;-77
2022/11/13 07:49:38;;;;;;;32.27;19.20;;;4.70;99.90;;;;;;5012480;28;20230;-77
2022/11/13 07:52:24;;;;;;;71.13;20.43;;;4.80;99.90;;;;;;5022190;28;20233;-77
2022/11/13 07:55:09;;;;;;;36.33;18.30;;;4.90;99.90;;;;;;5014723;28;20234;-77
2022/11/13 07:57:58;;;;;;;29.83;18.23;;;5.00;99.90;;;;;;5023333;28;20245;-77
2022/11/13 08:00:43;;;;;;;34.73;19.00;;;5.10;99.90;;;;;;5023029;28;20316;-77
2022/11/13 08:03:29;;;;;;;29.57;17.40;;;5.20;99.90;;;;;;5016265;28;20238;-76
2022/11/13 08:06:14;;;;;;;27.23;17.73;;;5.30;99.90;;;;;;5015831;28;20227;-76
2022/11/13 08:08:59;;;;;;;29.10;17.33;;;5.30;99.90;;;;;;5019200;28;20364;-77
2022/11/13 08:11:44;;;;;;;28.73;16.63;;;5.40;99.90;;;;;;5017116;28;20246;-77
2022/11/13 08:14:31;;;;;;;115.87;24.67;;;5.50;99.90;;;;;;5020388;28;20246;-77
2022/11/13 08:17:16;;;;;;;34.77;17.93;;;5.60;99.90;;;;;;5014344;28;20296;-77
2022/11/13 08:20:02;;;;;;;27.93;16.50;;;5.70;99.90;;;;;;5017268;28;20241;-76
2022/11/13 08:22:48;;;;;;;61.97;19.10;;;5.80;99.90;;;;;;5018762;28;20232;-77
2022/11/13 08:25:35;;;;;;;37.33;16.17;;;5.80;99.90;;;;;;5015124;28;20402;-77
2022/11/13 08:28:21;;;;;;;53.53;18.27;;;5.90;99.90;;;;;;5014249;28;20237;-77
2022/11/13 08:31:10;;;;;;;50.73;18.47;;;5.90;99.90;;;;;;5015786;28;20254;-77
2022/11/13 08:33:56;;;;;;;30.43;16.23;;;6.00;99.90;;;;;;5013157;28;20830;-77
2022/11/13 08:36:41;;;;;;;62.43;18.10;;;6.00;99.90;;;;;;5011651;28;20698;-78
2022/11/13 08:39:28;;;;;;;80.50;19.90;;;6.10;99.90;;;;;;5008294;28;20262;-77
2022/11/13 08:42:14;;;;;;;47.60;17.77;;;6.10;99.90;;;;;;5016674;28;20748;-77
2022/11/13 08:44:59;;;;;;;27.57;16.53;;;6.20;99.90;;;;;;5014610;28;20300;-78
2022/11/13 08:47:46;;;;;;;28.10;16.77;;;6.20;99.90;;;;;;5013200;28;20274;-76
2022/11/13 08:50:33;;;;;;;28.67;17.03;;;6.30;99.90;;;;;;5012823;28;20231;-77
2022/11/13 08:53:20;;;;;;;75.87;19.10;;;6.30;99.90;;;;;;5018869;28;20336;-78
2022/11/13 08:56:06;;;;;;;39.40;18.03;;;6.40;99.90;;;;;;5018971;28;20285;-77
2022/11/13 08:58:54;;;;;;;35.87;17.77;;;6.40;99.90;;;;;;5018356;28;20668;-77
2022/11/13 09:01:39;;;;;;;30.10;16.90;;;6.50;99.90;;;;;;5013603;28;20229;-77
2022/11/13 09:04:26;;;;;;;31.37;16.80;;;6.50;99.90;;;;;;5014095;28;20242;-78
2022/11/13 09:07:12;;;;;;;26.57;16.50;;;6.50;99.90;;;;;;5011960;28;20971;-77
2022/11/13 09:09:57;;;;;;;32.47;16.47;;;6.50;99.90;;;;;;5013110;28;20232;-78
2022/11/13 09:12:43;;;;;;;27.43;16.53;;;6.60;99.90;;;;;;5018071;28;20220;-77
2022/11/13 09:15:29;;;;;;;26.90;16.70;;;6.60;99.90;;;;;;5018291;28;20283;-78
2022/11/13 09:18:14;;;;;;;26.87;16.93;;;6.70;99.90;;;;;;5015826;28;20390;-76
2022/11/13 09:21:03;;;;;;;26.03;15.83;;;6.70;99.90;;;;;;5017185;28;20235;-77
2022/11/13 09:23:49;;;;;;;24.77;16.37;;;6.70;99.90;;;;;;5016984;28;20690;-76
2022/11/13 09:26:34;;;;;;;24.60;15.53;;;6.80;99.90;;;;;;5017774;28;20615;-77
2022/11/13 09:29:24;;;;;;;20.90;15.07;;;6.80;99.90;;;;;;5016240;28;20890;-77
2022/11/13 09:32:10;;;;;;;26.87;16.50;;;6.80;99.90;;;;;;5015139;28;20231;-76
2022/11/13 09:34:56;;;;;;;23.17;15.60;;;6.90;99.90;;;;;;5015990;28;20480;-78
2022/11/13 09:37:43;;;;;;;24.30;16.33;;;6.90;99.90;;;;;;5017706;28;20273;-77
2022/11/13 09:40:33;;;;;;;23.77;16.67;;;6.90;99.90;;;;;;5017423;28;20240;-76
2022/11/13 09:43:29;;;;;;;22.97;15.10;;;6.90;99.90;;;;;;5011105;28;20223;-77
2022/11/13 09:46:19;;;;;;;22.20;15.77;;;6.90;99.90;;;;;;5012656;28;20222;-78
2022/11/13 09:49:14;;;;;;;21.87;15.00;;;6.80;99.90;;;;;;5014971;28;20227;-78
2022/11/13 09:52:18;;;;;;;24.37;16.30;;;6.80;99.90;;;;;;5015878;28;20581;-78
2022/11/13 09:55:05;;;;;;;24.10;15.90;;;6.70;99.90;;;;;;5013770;28;20573;-79
2022/11/13 09:57:57;;;;;;;22.17;16.03;;;6.70;99.90;;;;;;5015771;28;20245;-78
2022/11/13 10:00:43;;;;;;;24.70;16.20;;;6.70;99.90;;;;;;5013745;28;20317;-76
2022/11/13 10:03:36;;;;;;;26.73;18.37;;;6.60;99.90;;;;;;5014542;28;21831;-76
2022/11/13 10:06:31;;;;;;;30.50;17.90;;;6.70;99.90;;;;;;5013551;28;20227;-76
2022/11/13 10:09:27;;;;;;;25.87;17.77;;;6.70;99.90;;;;;;5017073;28;20239;-77
2022/11/13 10:12:15;;;;;;;32.17;18.97;;;6.70;99.90;;;;;;5014965;28;20333;-78
2022/11/13 10:15:04;;;;;;;30.07;19.87;;;6.70;99.90;;;;;;5014029;28;20302;-78
2022/11/13 10:17:54;;;;;;;28.87;17.83;;;6.80;99.90;;;;;;5016117;28;20232;-78
2022/11/13 10:20:47;;;;;;;56.63;20.50;;;6.80;99.90;;;;;;5011947;28;20220;-77
2022/11/13 10:23:36;;;;;;;30.07;19.20;;;6.80;99.90;;;;;;5009389;28;20416;-76
2022/11/13 10:26:23;;;;;;;28.73;18.70;;;6.90;99.90;;;;;;5018001;28;20275;-78
2022/11/13 10:29:12;;;;;;;28.40;18.70;;;6.90;99.90;;;;;;5019403;28;20259;-76
2022/11/13 10:31:58;;;;;;;28.13;17.67;;;6.90;99.90;;;;;;5023206;28;20865;-76
2022/11/13 10:34:45;;;;;;;28.10;17.60;;;7.00;99.90;;;;;;5023508;28;20716;-76
2022/11/13 10:37:48;;;;;;;26.37;17.43;;;7.00;99.90;;;;;;5013976;28;20238;-77
2022/11/13 10:40:35;;;;;;;26.57;16.53;;;7.10;99.90;;;;;;5016534;28;20310;-75
2022/11/13 10:43:23;;;;;;;27.97;18.57;;;7.20;99.90;;;;;;5019948;28;20230;-79
2022/11/13 10:46:20;;;;;;;29.10;15.77;;;7.20;99.90;;;;;;5021294;28;20224;-79
2022/11/13 10:49:13;;;;;;;27.63;17.27;;;7.20;99.90;;;;;;5017910;28;20249;-79
2022/11/13 10:52:01;;;;;;;25.70;15.87;;;7.30;99.90;;;;;;5019968;28;20259;-78
2022/11/13 10:54:46;;;;;;;27.37;17.30;;;7.20;99.90;;;;;;5022474;28;20868;-78
2022/11/13 10:57:34;;;;;;;28.00;16.63;;;7.20;99.90;;;;;;5026744;28;20282;-78
2022/11/13 11:00:22;;;;;;;25.47;17.20;;;7.20;99.90;;;;;;5019802;28;20240;-77
2022/11/13 11:03:13;;;;;;;26.97;17.27;;;7.30;99.90;;;;;;5019987;28;20241;-77
2022/11/13 11:06:03;;;;;;;27.47;17.90;;;7.30;99.90;;;;;;5017918;28;20294;-78
2022/11/13 11:08:48;;;;;;;25.53;16.87;;;7.30;99.90;;;;;;5025611;28;20230;-77
2022/11/13 11:14:41;;;;;;;29.53;17.37;;;7.40;99.90;;;;;;5022938;28;20659;-77
2022/11/13 11:17:32;;;;;;;27.70;18.37;;;7.40;99.90;;;;;;5015150;28;20321;-77
2022/11/13 11:20:25;;;;;;;25.70;16.87;;;7.50;99.90;;;;;;5014490;28;21389;-78
2022/11/13 11:23:21;;;;;;;26.10;17.77;;;7.60;99.90;;;;;;5019488;28;20233;-78
2022/11/13 11:26:11;;;;;;;23.80;17.00;;;7.60;99.90;;;;;;5011514;28;20225;-78
2022/11/13 11:29:06;;;;;;;22.53;15.07;;;7.70;99.90;;;;;;5021834;28;20364;-78
2022/11/13 11:31:56;;;;;;;23.23;16.37;;;7.80;99.90;;;;;;5019506;28;20428;-77
2022/11/13 11:34:46;;;;;;;21.13;14.23;;;7.80;99.90;;;;;;5019786;28;20676;-77
2022/11/13 11:37:37;;;;;;;29.23;24.03;;;7.90;99.90;;;;;;5013816;28;20243;-78
2022/11/13 11:40:27;;;;;;;23.00;19.93;;;7.90;99.90;;;;;;5020949;28;20245;-75
2022/11/13 11:43:19;;;;;;;19.73;17.57;;;8.00;99.90;;;;;;5013646;28;20240;-76
2022/11/13 11:46:05;;;;;;;21.60;18.17;;;8.00;99.90;;;;;;5016519;28;20534;-76
2022/11/13 11:48:51;;;;;;;15.20;12.80;;;7.90;99.90;;;;;;5022123;28;20229;-76
2022/11/13 11:51:44;;;;;;;27.63;24.67;;;7.90;99.90;;;;;;5014592;28;20280;-76
2022/11/13 11:54:40;;;;;;;15.17;12.77;;;7.90;99.90;;;;;;5021094;28;20683;-76
2022/11/13 11:57:39;;;;;;;20.63;14.80;;;8.00;99.90;;;;;;5018445;28;20233;-76
2022/11/13 12:00:25;;;;;;;21.97;19.03;;;8.00;99.90;;;;;;5019995;28;20411;-77
2022/11/13 12:03:33;;;;;;;17.03;12.23;;;8.00;99.90;;;;;;5016267;28;20228;-77
2022/11/13 12:06:29;;;;;;;16.57;11.90;;;8.10;99.90;;;;;;5018404;28;20221;-76
2022/11/13 12:09:24;;;;;;;18.53;12.77;;;8.00;99.90;;;;;;5020971;28;20233;-77
2022/11/13 12:12:21;;;;;;;15.40;11.67;;;8.10;99.90;;;;;;5013074;28;20377;-77
2022/11/13 12:15:11;;;;;;;15.93;12.17;;;8.00;99.90;;;;;;5017701;28;20223;-77
2022/11/13 12:18:05;;;;;;;15.23;11.57;;;8.10;99.90;;;;;;5019280;28;20232;-77
2022/11/13 12:20:59;;;;;;;17.60;11.77;;;8.10;99.90;;;;;;5021915;28;20247;-77
2022/11/13 12:23:59;;;;;;;16.43;12.13;;;8.10;99.90;;;;;;5015566;28;20720;-77
2022/11/13 12:26:50;;;;;;;16.40;12.17;;;8.10;99.90;;;;;;5022875;28;20754;-77
2022/11/13 12:29:58;;;;;;;14.80;11.13;;;8.20;99.90;;;;;;5021781;28;20236;-77
2022/11/13 12:33:06;;;;;;;14.13;12.13;;;8.20;99.90;;;;;;5022519;28;20234;-79
2022/11/13 12:35:53;;;;;;;15.33;12.17;;;8.20;99.90;;;;;;5021260;28;20713;-78
2022/11/13 12:38:46;;;;;;;14.87;11.97;;;8.20;99.90;;;;;;5018439;28;20227;-80
2022/11/13 12:41:37;;;;;;;14.83;11.77;;;8.30;99.90;;;;;;5020850;28;20315;-80
2022/11/13 12:44:24;;;;;;;16.80;11.50;;;8.30;99.90;;;;;;5015202;28;20293;-79
2022/11/13 12:47:12;;;;;;;16.23;11.57;;;8.30;99.90;;;;;;5018724;28;20608;-79
2022/11/13 12:50:03;;;;;;;13.80;11.20;;;8.30;99.90;;;;;;5020399;28;20293;-78
2022/11/13 12:53:00;;;;;;;15.13;12.20;;;8.40;99.90;;;;;;5010101;28;20346;-78
2022/11/13 12:55:58;;;;;;;15.97;14.13;;;8.40;99.90;;;;;;5018496;28;20236;-80
2022/11/13 12:58:56;;;;;;;15.57;11.30;;;8.40;99.90;;;;;;5021306;28;20252;-78
2022/11/13 13:01:46;;;;;;;16.70;11.93;;;8.40;99.90;;;;;;5020750;28;20779;-79
2022/11/13 13:04:49;;;;;;;14.90;11.37;;;8.50;99.90;;;;;;5005887;28;20234;-79
2022/11/13 13:08:07;;;;;;;14.60;10.93;;;8.50;99.90;;;;;;5005154;28;20347;-79
2022/11/13 13:11:06;;;;;;;38.70;35.53;;;8.50;99.90;;;;;;5000827;28;20239;-78
2022/11/13 13:14:09;;;;;;;14.20;12.13;;;8.50;99.90;;;;;;5019897;28;20398;-79
2022/11/13 13:17:05;;;;;;;14.77;11.00;;;8.60;99.90;;;;;;5017337;28;20542;-79
2022/11/13 13:20:03;;;;;;;13.07;11.03;;;8.60;99.90;;;;;;5015563;28;20227;-79
2022/11/13 13:22:56;;;;;;;18.43;13.60;;;8.60;99.90;;;;;;5018351;28;20234;-79
2022/11/13 13:25:41;;;;;;;15.93;12.13;;;8.60;99.90;;;;;;5017173;28;20228;-79
2022/11/13 13:28:27;;;;;;;16.97;12.57;;;8.60;99.90;;;;;;5016889;28;20336;-78
2022/11/13 13:31:23;;;;;;;15.37;11.90;;;8.60;99.90;;;;;;5017547;28;20867;-79
2022/11/13 13:34:22;;;;;;;16.90;12.30;;;8.60;99.90;;;;;;5013639;28;20606;-79
2022/11/13 13:37:21;;;;;;;13.83;11.93;;;8.60;99.90;;;;;;5013513;28;20229;-78
2022/11/13 13:40:24;;;;;;;16.87;12.40;;;8.60;99.90;;;;;;5012856;28;20829;-79
2022/11/13 13:43:22;;;;;;;15.97;12.00;;;8.70;99.90;;;;;;5013617;28;20345;-78
2022/11/13 13:46:13;;;;;;;18.07;13.57;;;8.70;99.90;;;;;;5015269;28;20567;-80
2022/11/13 13:49:05;;;;;;;17.30;13.53;;;8.70;99.90;;;;;;5007004;28;20236;-78
2022/11/13 13:51:53;;;;;;;19.87;14.00;;;8.70;99.90;;;;;;5011035;28;20265;-78
2022/11/13 13:54:43;;;;;;;17.77;13.77;;;8.70;99.90;;;;;;5016830;28;20384;-79
2022/11/13 13:57:29;;;;;;;16.40;14.03;;;8.60;99.90;;;;;;5008142;28;20246;-78
2022/11/13 14:00:17;;;;;;;21.90;15.93;;;8.60;99.90;;;;;;5014199;28;20750;-78
2022/11/13 14:03:03;;;;;;;22.83;15.93;;;8.60;99.90;;;;;;5015935;28;20232;-78
2022/11/13 14:05:48;;;;;;;22.37;16.17;;;8.60;99.90;;;;;;5022183;28;20229;-79
2022/11/13 14:08:34;;;;;;;23.10;16.80;;;8.60;99.90;;;;;;5020805;28;20322;-79
2022/11/13 14:14:23;;;;;;;23.07;17.97;;;8.60;99.90;;;;;;5023130;28;20380;-78
2022/11/13 14:17:10;;;;;;;25.93;17.93;;;8.60;99.90;;;;;;5021856;28;20291;-79
2022/11/13 14:19:59;;;;;;;26.57;19.23;;;8.60;99.90;;;;;;5022909;28;20346;-79
2022/11/13 14:22:48;;;;;;;25.93;19.53;;;8.60;99.90;;;;;;5013412;28;20276;-79
2022/11/13 14:25:34;;;;;;;30.57;24.40;;;8.60;99.90;;;;;;5019408;28;20249;-78
2022/11/13 14:28:23;;;;;;;26.43;19.93;;;8.60;99.90;;;;;;5012665;28;20249;-78
2022/11/13 14:31:10;;;;;;;25.87;17.70;;;8.50;99.90;;;;;;5015933;28;20364;-79